Time;durP1;ratioP1;P1;durP2;ratioP2;P2;SDS_P1;SDS_P2;PMS_P1;PMS_P2;Temp;Humidity;BMP_temperature;BMP_pressure;BME280_temperature;BME280_humidity;BME280_pressure;Samples;Min_cycle;Max_cycle;Signal;HPM_P1;HPM_P2
2023/06/27 00:00:27;;;;;;;;;;;15.70;99.90;;;;;;7304228;19;8996;-70
2023/06/27 00:02:58;;;;;;;;;;;15.70;99.90;;;;;;7306111;19;9332;-71
2023/06/27 00:05:29;;;;;;;;;;;15.60;99.90;;;;;;7300805;19;9274;-70
2023/06/27 00:07:58;;;;;;;;;;;15.60;99.90;;;;;;7305643;19;9246;-71
2023/06/27 00:10:30;;;;;;;;;;;15.60;99.90;;;;;;7307135;19;10174;-70
2023/06/27 00:12:59;;;;;;;;;;;15.60;99.90;;;;;;7309404;19;9500;-70
2023/06/27 00:15:34;;;;;;;;;;;15.60;99.90;;;;;;7301554;19;11059;-71
2023/06/27 00:18:08;;;;;;;;;;;15.50;99.90;;;;;;7305205;19;9679;-71
2023/06/27 00:20:37;;;;;;;;;;;15.50;99.90;;;;;;7304083;19;9265;-71
2023/06/27 00:23:19;;;;;;;;;;;15.50;99.90;;;;;;7306909;19;9462;-71
2023/06/27 00:25:51;;;;;;;;;;;15.50;99.90;;;;;;7301902;19;9331;-70
2023/06/27 00:28:20;;;;;;;;;;;15.50;99.90;;;;;;7302579;19;9350;-70
2023/06/27 00:30:49;;;;;;;;;;;15.50;99.90;;;;;;7302137;19;9376;-71
2023/06/27 00:33:18;;;;;;;;;;;15.60;99.90;;;;;;7303470;19;9455;-70
2023/06/27 00:35:47;;;;;;;;;;;15.60;99.90;;;;;;7302605;19;9494;-70
2023/06/27 00:38:17;;;;;;;;;;;15.50;99.90;;;;;;7303888;19;9652;-70
2023/06/27 00:40:46;;;;;;;;;;;15.40;99.90;;;;;;7303302;19;9002;-70
2023/06/27 00:43:17;;;;;;;;;;;15.40;99.90;;;;;;7304334;19;9704;-70
2023/06/27 00:45:46;;;;;;;;;;;15.30;99.90;;;;;;7302789;19;9309;-70
2023/06/27 00:48:17;;;;;;;;;;;15.30;99.90;;;;;;7303162;19;10179;-70
2023/06/27 00:50:47;;;;;;;;;;;15.30;99.90;;;;;;7303002;19;9610;-70
2023/06/27 00:53:16;;;;;;;;;;;15.30;99.90;;;;;;7303508;19;9277;-70
2023/06/27 00:55:46;;;;;;;;;;;15.20;99.90;;;;;;7305282;19;9290;-71
2023/06/27 00:58:19;;;;;;;;;;;15.20;99.90;;;;;;7301324;19;9486;-70
2023/06/27 01:00:49;;;;;;;;;;;15.20;99.90;;;;;;7303000;19;9269;-71
2023/06/27 01:03:18;;;;;;;;;;;15.10;99.90;;;;;;7299068;19;10329;-71
2023/06/27 01:05:48;;;;;;;;;;;15.10;99.90;;;;;;7299974;19;9384;-70
2023/06/27 01:08:30;;;;;;;;;;;15.10;99.90;;;;;;7301263;19;9249;-71
2023/06/27 01:11:08;;;;;;;;;;;15.10;99.90;;;;;;7301897;19;10102;-71
2023/06/27 01:13:44;;;;;;;;;;;15.10;99.90;;;;;;7303595;19;9291;-71
2023/06/27 01:16:14;;;;;;;;;;;15.10;99.90;;;;;;7300951;19;9806;-70
2023/06/27 01:18:45;;;;;;;;;;;15.00;99.90;;;;;;7304166;19;9355;-71
2023/06/27 01:21:15;;;;;;;;;;;15.10;99.90;;;;;;7296855;19;9277;-71
2023/06/27 01:23:58;;;;;;;;;;;15.10;99.90;;;;;;7305048;19;9250;-71
2023/06/27 01:26:28;;;;;;;;;;;15.00;99.90;;;;;;7302352;19;9253;-70
2023/06/27 01:28:57;;;;;;;;;;;15.00;99.90;;;;;;7302546;19;9220;-70
2023/06/27 01:31:33;;;;;;;;;;;15.00;99.90;;;;;;7298505;19;9228;-70
2023/06/27 01:34:09;;;;;;;;;;;14.80;99.90;;;;;;7301652;19;10736;-70
2023/06/27 01:36:48;;;;;;;;;;;14.80;99.90;;;;;;7301149;19;11486;-70
2023/06/27 01:39:24;;;;;;;;;;;14.80;99.90;;;;;;7302845;19;8999;-70
2023/06/27 01:42:00;;;;;;;;;;;14.80;99.90;;;;;;7300990;19;10949;-70
2023/06/27 01:44:32;;;;;;;;;;;14.80;99.90;;;;;;7304623;19;9496;-70
2023/06/27 01:47:01;;;;;;;;;;;14.80;99.90;;;;;;7301016;19;9229;-70
2023/06/27 01:49:30;;;;;;;;;;;14.80;99.90;;;;;;7300966;19;9444;-71
2023/06/27 01:52:00;;;;;;;;;;;14.70;99.90;;;;;;7303897;19;9249;-70
2023/06/27 01:54:32;;;;;;;;;;;14.70;99.90;;;;;;7299611;19;9559;-71
2023/06/27 01:57:01;;;;;;;;;;;14.70;99.90;;;;;;7302062;19;9260;-70
2023/06/27 01:59:30;;;;;;;;;;;14.70;99.90;;;;;;7299211;19;9269;-70
2023/06/27 02:01:59;;;;;;;;;;;14.70;99.90;;;;;;7300873;19;10251;-70
2023/06/27 02:04:28;;;;;;;;;;;14.70;99.90;;;;;;7299788;19;8944;-71
2023/06/27 02:06:58;;;;;;;;;;;14.70;99.90;;;;;;7302398;19;10726;-71
2023/06/27 02:09:27;;;;;;;;;;;14.70;99.90;;;;;;7297318;19;11282;-71
2023/06/27 02:11:59;;;;;;;;;;;14.60;99.90;;;;;;7299750;19;8944;-71
2023/06/27 02:14:28;;;;;;;;;;;14.60;99.90;;;;;;7303658;19;9233;-70
2023/06/27 02:16:57;;;;;;;;;;;14.60;99.90;;;;;;7310318;19;9237;-71
2023/06/27 02:19:26;;;;;;;;;;;14.60;99.90;;;;;;7304400;19;8944;-71
2023/06/27 02:21:55;;;;;;;;;;;14.60;99.90;;;;;;7305208;19;11736;-70
2023/06/27 02:24:24;;;;;;;;;;;14.60;99.90;;;;;;7306538;19;9409;-71
2023/06/27 02:26:54;;;;;;;;;;;14.50;99.90;;;;;;7304624;19;9245;-70
2023/06/27 02:29:25;;;;;;;;;;;14.50;99.90;;;;;;7306718;19;10529;-71
2023/06/27 02:31:54;;;;;;;;;;;14.40;99.90;;;;;;7306257;19;9217;-70
2023/06/27 02:34:23;;;;;;;;;;;14.30;99.90;;;;;;7304358;19;9538;-70
2023/06/27 02:36:52;;;;;;;;;;;14.20;99.90;;;;;;7305088;19;9249;-71
2023/06/27 02:39:21;;;;;;;;;;;14.20;99.90;;;;;;7307368;19;9346;-71
2023/06/27 02:41:50;;;;;;;;;;;14.30;99.90;;;;;;7307033;19;9268;-71
2023/06/27 02:44:20;;;;;;;;;;;14.30;99.90;;;;;;7307743;19;11212;-70
2023/06/27 02:46:51;;;;;;;;;;;14.20;99.90;;;;;;7307050;19;9334;-70
2023/06/27 02:49:20;;;;;;;;;;;14.30;99.90;;;;;;7308027;19;9321;-70
2023/06/27 02:51:49;;;;;;;;;;;14.30;99.90;;;;;;7313123;19;9482;-70
2023/06/27 02:54:19;;;;;;;;;;;14.50;99.90;;;;;;7308355;19;9462;-71
2023/06/27 02:56:48;;;;;;;;;;;14.50;99.90;;;;;;7306668;19;9496;-70
2023/06/27 02:59:17;;;;;;;;;;;14.50;99.90;;;;;;7307028;19;10026;-70
2023/06/27 03:01:46;;;;;;;;;;;14.50;99.90;;;;;;7306533;19;12396;-70
2023/06/27 03:04:22;;;;;;;;;;;14.50;99.90;;;;;;7307152;19;10142;-71
2023/06/27 03:06:52;;;;;;;;;;;14.60;99.90;;;;;;7305298;19;9796;-71
2023/06/27 03:09:22;;;;;;;;;;;14.60;99.90;;;;;;7304066;19;9249;-71
2023/06/27 03:11:51;;;;;;;;;;;14.50;99.90;;;;;;7308106;19;9301;-70
2023/06/27 03:14:21;;;;;;;;;;;14.50;99.90;;;;;;7303380;19;9225;-70
2023/06/27 03:16:50;;;;;;;;;;;14.60;99.90;;;;;;7306460;19;9270;-70
2023/06/27 03:19:22;;;;;;;;;;;14.60;99.90;;;;;;7303878;19;9475;-70
2023/06/27 03:21:51;;;;;;;;;;;14.50;99.90;;;;;;7304667;19;8944;-70
2023/06/27 03:24:20;;;;;;;;;;;14.50;99.90;;;;;;7305391;19;9766;-70
2023/06/27 03:26:49;;;;;;;;;;;14.50;99.90;;;;;;7295134;19;9589;-71
2023/06/27 03:29:18;;;;;;;;;;;14.40;99.90;;;;;;7304054;19;9233;-71
2023/06/27 03:31:47;;;;;;;;;;;14.50;99.90;;;;;;7302771;19;9414;-70
2023/06/27 03:34:16;;;;;;;;;;;14.50;99.90;;;;;;7305485;19;10319;-70
2023/06/27 03:36:48;;;;;;;;;;;14.40;99.90;;;;;;7304655;19;9237;-70
2023/06/27 03:39:17;;;;;;;;;;;14.40;99.90;;;;;;7305996;19;9304;-70
2023/06/27 03:41:46;;;;;;;;;;;14.30;99.90;;;;;;7301614;19;8945;-70
2023/06/27 03:44:15;;;;;;;;;;;14.30;99.90;;;;;;7302748;19;9236;-70
2023/06/27 03:46:44;;;;;;;;;;;14.30;99.90;;;;;;7304915;19;9600;-70
2023/06/27 03:49:13;;;;;;;;;;;14.40;99.90;;;;;;7306504;19;11312;-71
2023/06/27 03:51:43;;;;;;;;;;;14.30;99.90;;;;;;7308541;19;9245;-70
2023/06/27 03:54:15;;;;;;;;;;;14.40;99.90;;;;;;7304165;19;9281;-70
2023/06/27 03:56:44;;;;;;;;;;;14.40;99.90;;;;;;7302023;19;11309;-71
2023/06/27 03:59:13;;;;;;;;;;;14.40;99.90;;;;;;7303006;19;9253;-71
2023/06/27 04:01:42;;;;;;;;;;;14.40;99.90;;;;;;7303383;19;12128;-71
2023/06/27 04:04:11;;;;;;;;;;;14.50;99.90;;;;;;7303980;19;10122;-70
2023/06/27 04:06:40;;;;;;;;;;;14.50;99.90;;;;;;7307116;19;11278;-71
2023/06/27 04:09:09;;;;;;;;;;;14.50;99.90;;;;;;7303493;19;9293;-71
2023/06/27 04:11:42;;;;;;;;;;;14.60;99.90;;;;;;7304218;19;11105;-70
2023/06/27 04:14:11;;;;;;;;;;;14.70;99.90;;;;;;7303035;19;9253;-70
2023/06/27 04:16:40;;;;;;;;;;;14.80;99.90;;;;;;7307406;19;9249;-70
2023/06/27 04:19:09;;;;;;;;;;;14.80;99.90;;;;;;7304162;19;9693;-70
2023/06/27 04:21:38;;;;;;;;;;;14.80;99.90;;;;;;7301067;19;9488;-70
2023/06/27 04:24:08;;;;;;;;;;;14.80;99.90;;;;;;7304251;19;9289;-70
2023/06/27 04:26:37;;;;;;;;;;;14.80;99.90;;;;;;7302209;19;9579;-71
2023/06/27 04:29:09;;;;;;;;;;;14.90;99.90;;;;;;7303602;19;9467;-70
2023/06/27 04:31:38;;;;;;;;;;;14.90;99.90;;;;;;7300384;19;9368;-71
2023/06/27 04:34:08;;;;;;;;;;;14.90;99.90;;;;;;7303685;19;9242;-70
2023/06/27 04:36:41;;;;;;;;;;;14.80;99.90;;;;;;7303249;19;9228;-70
2023/06/27 04:39:10;;;;;;;;;;;15.00;99.90;;;;;;7296983;19;9496;-71
2023/06/27 04:41:39;;;;;;;;;;;15.10;99.90;;;;;;7300731;19;8944;-70
2023/06/27 04:44:14;;;;;;;;;;;15.30;99.90;;;;;;7307055;19;10164;-70
2023/06/27 04:46:43;;;;;;;;;;;15.40;99.90;;;;;;7300761;19;9888;-70
2023/06/27 04:49:12;;;;;;;;;;;15.40;99.90;;;;;;7304697;19;9239;-70
2023/06/27 04:51:41;;;;;;;;;;;15.40;99.90;;;;;;7304596;19;9280;-70
2023/06/27 04:54:11;;;;;;;;;;;15.50;99.90;;;;;;7303629;19;10565;-70
2023/06/27 04:56:40;;;;;;;;;;;15.50;99.90;;;;;;7295531;19;9574;-70
2023/06/27 04:59:09;;;;;;;;;;;15.60;99.90;;;;;;7300984;19;9449;-71
2023/06/27 05:01:40;;;;;;;;;;;15.60;99.90;;;;;;7294987;19;8944;-71
2023/06/27 05:04:09;;;;;;;;;;;15.70;99.90;;;;;;7302014;19;9436;-71
2023/06/27 05:06:38;;;;;;;;;;;15.80;99.90;;;;;;7304629;19;9253;-71
2023/06/27 05:09:08;;;;;;;;;;;16.00;99.90;;;;;;7301541;19;11500;-71
2023/06/27 05:11:37;;;;;;;;;;;16.30;99.90;;;;;;7307611;19;9132;-70
2023/06/27 05:14:07;;;;;;;;;;;16.90;99.90;;;;;;7303672;19;11305;-71
2023/06/27 05:16:36;;;;;;;;;;;17.50;99.90;;;;;;7302964;19;9020;-71
2023/06/27 05:19:07;;;;;;;;;;;17.80;99.90;;;;;;7303313;19;9257;-71
2023/06/27 05:21:36;;;;;;;;;;;18.00;99.90;;;;;;7304595;19;9504;-71
2023/06/27 05:24:07;;;;;;;;;;;17.90;99.90;;;;;;7305303;19;9398;-69
2023/06/27 05:26:36;;;;;;;;;;;17.60;99.90;;;;;;7299549;19;9206;-69
2023/06/27 05:29:05;;;;;;;;;;;17.50;99.90;;;;;;7305986;19;9310;-71
2023/06/27 05:31:34;;;;;;;;;;;17.40;99.90;;;;;;7304076;19;11272;-70
2023/06/27 05:34:03;;;;;;;;;;;17.30;99.90;;;;;;7305966;19;9317;-70
2023/06/27 05:36:35;;;;;;;;;;;17.10;99.90;;;;;;7295815;19;9427;-70
2023/06/27 05:39:04;;;;;;;;;;;17.20;99.90;;;;;;7306186;19;9230;-70
2023/06/27 05:41:33;;;;;;;;;;;17.30;99.90;;;;;;7303248;19;10107;-70
2023/06/27 05:44:02;;;;;;;;;;;17.50;99.90;;;;;;7306019;19;10206;-70
2023/06/27 05:46:37;;;;;;;;;;;17.50;99.90;;;;;;7303178;19;9237;-70
2023/06/27 05:49:07;;;;;;;;;;;17.50;99.90;;;;;;7303110;19;9494;-70
2023/06/27 05:51:39;;;;;;;;;;;17.70;99.90;;;;;;7308024;19;8944;-70
2023/06/27 05:54:08;;;;;;;;;;;17.80;99.90;;;;;;7296482;19;9237;-70
2023/06/27 05:56:37;;;;;;;;;;;17.90;99.90;;;;;;7303158;19;9356;-70
2023/06/27 05:59:07;;;;;;;;;;;17.80;99.90;;;;;;7302390;19;9242;-70
2023/06/27 06:01:37;;;;;;;;;;;18.00;99.90;;;;;;7202347;19;14213;-71
2023/06/27 06:04:06;;;;;;;;;;;18.30;99.90;;;;;;7303725;19;9527;-78
2023/06/27 06:06:38;;;;;;;;;;;18.20;99.90;;;;;;7299992;19;9367;-73
2023/06/27 06:09:07;;;;;;;;;;;18.00;99.90;;;;;;7303041;19;9236;-78
2023/06/27 06:11:37;;;;;;;;;;;18.30;99.90;;;;;;7303832;19;9212;-71
2023/06/27 06:14:07;;;;;;;;;;;18.40;99.90;;;;;;7297525;19;9257;-71
2023/06/27 06:16:37;;;;;;;;;;;18.30;99.90;;;;;;7300218;19;11345;-71
2023/06/27 06:19:07;;;;;;;;;;;18.20;99.90;;;;;;7294583;19;9323;-72
2023/06/27 06:21:39;;;;;;;;;;;18.20;99.90;;;;;;7302004;19;8944;-72
2023/06/27 06:24:09;;;;;;;;;;;18.20;99.90;;;;;;7295691;19;9842;-72
2023/06/27 06:26:38;;;;;;;;;;;18.10;99.90;;;;;;7297419;19;9233;-72
2023/06/27 06:29:12;;;;;;;;;;;18.20;99.90;;;;;;7302076;19;9702;-72
2023/06/27 06:31:41;;;;;;;;;;;18.20;99.90;;;;;;7295864;19;9236;-72
2023/06/27 06:34:11;;;;;;;;;;;18.30;99.90;;;;;;7280129;19;9369;-72
2023/06/27 06:36:43;;;;;;;;;;;18.30;99.90;;;;;;7282959;19;10122;-71
2023/06/27 06:39:12;;;;;;;;;;;18.40;99.90;;;;;;7295774;19;9648;-72
2023/06/27 06:41:41;;;;;;;;;;;18.60;99.90;;;;;;7286819;19;9582;-71
2023/06/27 06:44:10;;;;;;;;;;;18.80;99.90;;;;;;7295346;19;10067;-71
2023/06/27 06:46:41;;;;;;;;;;;18.80;99.90;;;;;;7296780;19;9252;-72
2023/06/27 06:49:11;;;;;;;;;;;18.80;99.90;;;;;;7292846;19;9724;-71
2023/06/27 06:51:43;;;;;;;;;;;18.70;99.90;;;;;;7283481;19;9506;-72
2023/06/27 06:54:12;;;;;;;;;;;19.00;99.90;;;;;;7272316;19;9319;-72
2023/06/27 06:56:41;;;;;;;;;;;19.20;99.90;;;;;;7293819;19;9443;-72
2023/06/27 06:59:10;;;;;;;;;;;19.20;99.90;;;;;;7292506;19;9523;-72
2023/06/27 07:01:39;;;;;;;;;;;19.40;99.90;;;;;;7294970;19;9509;-72
2023/06/27 07:04:08;;;;;;;;;;;19.60;99.90;;;;;;7307069;19;9261;-72
2023/06/27 07:06:38;;;;;;;;;;;20.00;99.90;;;;;;7304272;19;9359;-72
2023/06/27 07:09:09;;;;;;;;;;;20.70;99.10;;;;;;7305837;19;9448;-73
2023/06/27 07:11:39;;;;;;;;;;;21.30;99.90;;;;;;7304146;19;9261;-72
2023/06/27 07:14:08;;;;;;;;;;;21.70;99.90;;;;;;7283287;19;11309;-72
2023/06/27 07:16:37;;;;;;;;;;;21.90;88.90;;;;;;7295007;19;9490;-73
2023/06/27 07:19:07;;;;;;;;;;;22.00;89.30;;;;;;7307505;19;9703;-72
2023/06/27 07:21:37;;;;;;;;;;;22.20;91.60;;;;;;7293581;19;9374;-72
2023/06/27 07:24:09;;;;;;;;;;;22.50;92.30;;;;;;7304497;19;9666;-72
2023/06/27 07:26:38;;;;;;;;;;;22.70;92.10;;;;;;7305071;19;9212;-72
2023/06/27 07:29:07;;;;;;;;;;;22.60;88.80;;;;;;7304960;19;8944;-73
2023/06/27 07:31:37;;;;;;;;;;;22.70;84.70;;;;;;7303539;19;9221;-72
2023/06/27 07:34:06;;;;;;;;;;;22.70;88.30;;;;;;7307784;19;9230;-72
2023/06/27 07:36:35;;;;;;;;;;;22.80;86.60;;;;;;7302094;19;8944;-72
2023/06/27 07:39:04;;;;;;;;;;;22.80;71.10;;;;;;7287639;19;9324;-72
2023/06/27 07:41:36;;;;;;;;;;;23.10;75.30;;;;;;7306915;19;10138;-72
2023/06/27 07:44:05;;;;;;;;;;;23.30;78.70;;;;;;7304969;19;9259;-72
2023/06/27 07:46:34;;;;;;;;;;;23.60;80.60;;;;;;7304635;19;10566;-71
2023/06/27 07:49:03;;;;;;;;;;;23.70;78.40;;;;;;7278291;19;14058;-72
2023/06/27 07:51:32;;;;;;;;;;;23.70;75.60;;;;;;7309269;19;9430;-72
2023/06/27 07:54:02;;;;;;;;;;;23.80;77.80;;;;;;7304647;19;9603;-72
2023/06/27 07:56:31;;;;;;;;;;;23.70;70.40;;;;;;7300583;19;9489;-74
2023/06/27 07:59:04;;;;;;;;;;;23.90;72.20;;;;;;7300649;19;8944;-72
2023/06/27 08:01:33;;;;;;;;;;;23.90;72.00;;;;;;7303690;19;10771;-73
2023/06/27 08:04:02;;;;;;;;;;;24.10;70.70;;;;;;7303002;19;9618;-72
2023/06/27 08:06:31;;;;;;;;;;;24.40;74.60;;;;;;7305096;19;9267;-73
2023/06/27 08:09:01;;;;;;;;;;;24.10;66.80;;;;;;7303425;19;9294;-72
2023/06/27 08:11:30;;;;;;;;;;;23.90;69.60;;;;;;7304956;19;9459;-73
2023/06/27 08:13:59;;;;;;;;;;;23.90;65.60;;;;;;7294695;19;10962;-73
2023/06/27 08:16:33;;;;;;;;;;;24.10;70.30;;;;;;7295017;19;9447;-72
2023/06/27 08:19:02;;;;;;;;;;;23.70;69.80;;;;;;7302910;19;10541;-72
2023/06/27 08:21:31;;;;;;;;;;;23.50;72.30;;;;;;7303753;19;9241;-72
2023/06/27 08:24:00;;;;;;;;;;;23.60;73.00;;;;;;7304130;19;10977;-73
2023/06/27 08:26:29;;;;;;;;;;;23.60;72.10;;;;;;7303894;19;8999;-72
2023/06/27 08:28:58;;;;;;;;;;;23.40;71.70;;;;;;7302945;19;9189;-72
2023/06/27 08:31:27;;;;;;;;;;;23.10;74.00;;;;;;7297525;19;10059;-72
2023/06/27 08:33:59;;;;;;;;;;;23.00;75.20;;;;;;7302117;19;9477;-73
2023/06/27 08:36:28;;;;;;;;;;;23.00;73.30;;;;;;7302845;19;8944;-72
2023/06/27 08:38:57;;;;;;;;;;;23.20;72.60;;;;;;7303962;19;9280;-73
2023/06/27 08:41:26;;;;;;;;;;;23.30;70.60;;;;;;7304770;19;11446;-73
2023/06/27 08:43:56;;;;;;;;;;;23.40;70.80;;;;;;7303006;19;9440;-73
2023/06/27 08:46:25;;;;;;;;;;;23.50;70.20;;;;;;7303822;19;12264;-72
2023/06/27 08:48:56;;;;;;;;;;;23.50;70.30;;;;;;7301066;19;9474;-73
2023/06/27 08:51:32;;;;;;;;;;;23.90;71.00;;;;;;7306796;19;9510;-73
2023/06/27 08:54:14;;;;;;;;;;;23.70;67.20;;;;;;7301186;19;9969;-73
2023/06/27 08:56:44;;;;;;;;;;;23.50;68.50;;;;;;7302086;19;9458;-73
2023/06/27 08:59:19;;;;;;;;;;;23.20;66.60;;;;;;7303968;19;9255;-72
2023/06/27 09:01:50;;;;;;;;;;;22.90;66.70;;;;;;7303609;19;9311;-72
2023/06/27 09:04:20;;;;;;;;;;;22.70;66.50;;;;;;7295889;19;9512;-72
2023/06/27 09:06:52;;;;;;;;;;;22.80;67.40;;;;;;7305316;19;9273;-72
2023/06/27 09:09:22;;;;;;;;;;;22.80;68.70;;;;;;7298995;19;10122;-72
2023/06/27 09:11:53;;;;;;;;;;;22.90;68.00;;;;;;7303424;19;9532;-72
2023/06/27 09:14:22;;;;;;;;;;;23.00;68.40;;;;;;7299367;19;9447;-73
2023/06/27 09:16:52;;;;;;;;;;;23.00;68.00;;;;;;7303543;19;9221;-71
2023/06/27 09:19:22;;;;;;;;;;;22.70;66.90;;;;;;7302611;19;9523;-72
2023/06/27 09:21:55;;;;;;;;;;;22.30;66.90;;;;;;7301870;19;9411;-72
2023/06/27 09:24:25;;;;;;;;;;;22.10;70.80;;;;;;7298020;19;9669;-73
2023/06/27 09:26:54;;;;;;;;;;;22.20;72.20;;;;;;7301783;19;9863;-72
2023/06/27 09:29:23;;;;;;;;;;;22.50;70.70;;;;;;7304221;19;9379;-72
2023/06/27 09:32:07;;;;;;;;;;;22.70;69.40;;;;;;7292383;19;8944;-72
2023/06/27 09:34:37;;;;;;;;;;;22.90;66.70;;;;;;7297055;19;9457;-72
2023/06/27 09:37:09;;;;;;;;;;;23.00;65.70;;;;;;7300993;19;9301;-73
2023/06/27 09:39:38;;;;;;;;;;;23.10;66.80;;;;;;7301714;19;9447;-73
2023/06/27 09:42:07;;;;;;;;;;;23.00;66.00;;;;;;7291619;19;8944;-73
2023/06/27 09:44:36;;;;;;;;;;;22.80;65.60;;;;;;7297149;19;9261;-72
2023/06/27 09:47:11;;;;;;;;;;;22.70;67.70;;;;;;7301817;19;9465;-72
2023/06/27 09:49:44;;;;;;;;;;;22.50;66.80;;;;;;7300284;19;9091;-73
2023/06/27 09:52:16;;;;;;;;;;;22.60;68.00;;;;;;7303932;19;9275;-73
2023/06/27 09:54:48;;;;;;;;;;;22.90;67.80;;;;;;7299845;19;9280;-73
2023/06/27 09:57:21;;;;;;;;;;;23.10;66.80;;;;;;7290018;19;9281;-73
2023/06/27 09:59:51;;;;;;;;;;;23.00;65.00;;;;;;7292739;19;9291;-73
2023/06/27 10:02:20;;;;;;;;;;;22.70;64.60;;;;;;7299234;19;9593;-73
2023/06/27 10:04:49;;;;;;;;;;;22.50;66.60;;;;;;7300249;19;9275;-72
2023/06/27 10:07:21;;;;;;;;;;;22.30;66.60;;;;;;7292146;19;9564;-73
2023/06/27 10:09:52;;;;;;;;;;;22.10;67.80;;;;;;7295694;19;9287;-72
2023/06/27 10:12:21;;;;;;;;;;;22.00;67.50;;;;;;7302775;19;9434;-71
2023/06/27 10:14:51;;;;;;;;;;;22.10;67.70;;;;;;7303328;19;9482;-76
2023/06/27 10:17:21;;;;;;;;;;;22.30;65.30;;;;;;7307810;19;9245;-72
2023/06/27 10:19:52;;;;;;;;;;;22.50;65.30;;;;;;7326027;19;8944;-71
2023/06/27 10:22:29;;;;;;;;;;;22.30;64.60;;;;;;7321621;19;9221;-70
2023/06/27 10:25:04;;;;;;;;;;;22.30;64.70;;;;;;7322983;19;9256;-71
2023/06/27 10:27:38;;;;;;;;;;;22.20;63.30;;;;;;7323451;19;9301;-71
2023/06/27 10:30:14;;;;;;;;;;;22.50;63.60;;;;;;7326982;19;10493;-71
2023/06/27 10:32:45;;;;;;;;;;;22.90;65.00;;;;;;7322083;19;9197;-71
2023/06/27 10:35:26;;;;;;;;;;;22.90;65.60;;;;;;7323333;19;9492;-71
2023/06/27 10:38:18;;;;;;;;;;;23.10;65.40;;;;;;7330749;19;9131;-71
2023/06/27 10:41:12;;;;;;;;;;;23.20;64.80;;;;;;7329472;19;9564;-70
2023/06/27 10:43:42;;;;;;;;;;;23.50;64.30;;;;;;7327717;19;9170;-71
2023/06/27 10:46:13;;;;;;;;;;;23.50;63.80;;;;;;7330529;19;8997;-71
2023/06/27 10:48:54;;;;;;;;;;;23.50;62.50;;;;;;7331055;19;9166;-71
2023/06/27 10:51:25;;;;;;;;;;;23.70;63.50;;;;;;7329272;19;8944;-71
2023/06/27 10:54:21;;;;;;;;;;;23.80;63.20;;;;;;7329155;19;9507;-72
2023/06/27 10:56:56;;;;;;;;;;;23.60;59.10;;;;;;7327799;19;9293;-71
2023/06/27 10:59:26;;;;;;;;;;;23.60;60.80;;;;;;7328919;19;9259;-71
2023/06/27 11:02:04;;;;;;;;;;;23.60;60.90;;;;;;7328840;19;9308;-71
2023/06/27 11:04:41;;;;;;;;;;;23.50;61.20;;;;;;7329300;19;8944;-71
2023/06/27 11:07:13;;;;;;;;;;;23.80;62.60;;;;;;7326069;19;9414;-71
2023/06/27 11:09:54;;;;;;;;;;;24.00;61.90;;;;;;7325962;19;9291;-70
2023/06/27 11:12:25;;;;;;;;;;;24.10;62.00;;;;;;7328498;19;9221;-71
2023/06/27 11:14:54;;;;;;;;;;;23.70;60.40;;;;;;7329232;19;8945;-73
2023/06/27 11:17:25;;;;;;;;;;;23.60;62.20;;;;;;7330508;19;9203;-73
2023/06/27 11:19:58;;;;;;;;;;;23.40;62.50;;;;;;7330245;19;9299;-72
2023/06/27 11:22:27;;;;;;;;;;;23.50;63.20;;;;;;7331621;19;9197;-73
2023/06/27 11:24:59;;;;;;;;;;;23.60;63.40;;;;;;7329488;19;8944;-72
2023/06/27 11:27:32;;;;;;;;;;;23.50;63.20;;;;;;7328575;19;9242;-72
2023/06/27 11:30:01;;;;;;;;;;;23.10;62.60;;;;;;7330746;19;9440;-73
2023/06/27 11:32:30;;;;;;;;;;;23.00;62.20;;;;;;7328465;19;9466;-72
2023/06/27 11:34:59;;;;;;;;;;;23.00;63.10;;;;;;7328734;19;9278;-72
2023/06/27 11:37:29;;;;;;;;;;;22.80;63.30;;;;;;7330493;19;9480;-71
2023/06/27 11:40:07;;;;;;;;;;;23.00;64.20;;;;;;7329778;19;9190;-72
2023/06/27 11:42:36;;;;;;;;;;;22.80;64.60;;;;;;7327417;19;9219;-72
2023/06/27 11:45:06;;;;;;;;;;;22.80;64.50;;;;;;7327888;19;9222;-72
2023/06/27 11:47:35;;;;;;;;;;;22.70;64.10;;;;;;7328728;19;8944;-71
2023/06/27 11:50:10;;;;;;;;;;;22.70;65.40;;;;;;7325491;19;8948;-72
2023/06/27 11:52:41;;;;;;;;;;;22.90;65.10;;;;;;7331311;19;9270;-71
2023/06/27 11:55:13;;;;;;;;;;;22.80;63.70;;;;;;7329404;19;9539;-71
2023/06/27 11:57:46;;;;;;;;;;;23.00;64.20;;;;;;7327889;19;9229;-72
2023/06/27 12:00:22;;;;;;;;;;;23.00;63.80;;;;;;7329138;19;9162;-71
2023/06/27 12:02:53;;;;;;;;;;;22.90;64.60;;;;;;7326758;19;9206;-71
2023/06/27 12:05:24;;;;;;;;;;;22.80;64.60;;;;;;7326868;19;9001;-72
2023/06/27 12:08:01;;;;;;;;;;;22.80;64.50;;;;;;7325969;19;9229;-72
2023/06/27 12:10:34;;;;;;;;;;;22.80;64.80;;;;;;7328354;19;9501;-71
2023/06/27 12:13:05;;;;;;;;;;;22.80;64.60;;;;;;7326402;19;9195;-72
2023/06/27 12:15:45;;;;;;;;;;;22.90;65.00;;;;;;7325506;19;10419;-71
2023/06/27 12:18:27;;;;;;;;;;;23.00;64.00;;;;;;7326428;19;9066;-71
2023/06/27 12:20:57;;;;;;;;;;;23.10;64.30;;;;;;7329870;19;9218;-72
2023/06/27 12:23:31;;;;;;;;;;;23.10;64.20;;;;;;7324114;19;10488;-72
2023/06/27 12:26:03;;;;;;;;;;;23.10;64.40;;;;;;7325016;19;9213;-72
2023/06/27 12:28:34;;;;;;;;;;;23.20;63.40;;;;;;7329543;19;9324;-71
2023/06/27 12:31:03;;;;;;;;;;;23.20;62.90;;;;;;7326355;19;9225;-72
2023/06/27 12:33:32;;;;;;;;;;;23.10;63.30;;;;;;7325605;19;9205;-72
2023/06/27 12:36:02;;;;;;;;;;;23.10;63.00;;;;;;7324942;19;9001;-71
2023/06/27 12:38:31;;;;;;;;;;;22.90;62.70;;;;;;7327256;19;9253;-72
2023/06/27 12:41:02;;;;;;;;;;;22.80;62.80;;;;;;7327673;19;9237;-72
2023/06/27 12:43:31;;;;;;;;;;;22.80;63.20;;;;;;7325498;19;9000;-72
2023/06/27 12:46:02;;;;;;;;;;;22.60;62.80;;;;;;7327364;19;9207;-71
2023/06/27 12:48:33;;;;;;;;;;;22.50;63.40;;;;;;7326211;19;9222;-72
2023/06/27 12:51:02;;;;;;;;;;;22.50;64.20;;;;;;7324941;19;10095;-72
2023/06/27 12:53:31;;;;;;;;;;;22.20;63.50;;;;;;7325843;19;9552;-71
2023/06/27 12:56:04;;;;;;;;;;;22.20;64.30;;;;;;7324104;19;9234;-72
2023/06/27 12:58:34;;;;;;;;;;;22.00;65.00;;;;;;7323922;19;9197;-71
2023/06/27 13:01:04;;;;;;;;;;;22.10;65.70;;;;;;7324500;19;9455;-71
2023/06/27 13:03:33;;;;;;;;;;;22.10;65.80;;;;;;7328766;19;9057;-71
2023/06/27 13:06:02;;;;;;;;;;;22.20;65.70;;;;;;7324617;19;9001;-72
2023/06/27 13:08:31;;;;;;;;;;;22.20;66.60;;;;;;7324211;19;9305;-72
2023/06/27 13:11:03;;;;;;;;;;;22.20;65.80;;;;;;7324616;19;8944;-71
2023/06/27 13:13:33;;;;;;;;;;;22.30;65.70;;;;;;7324497;19;9205;-72
2023/06/27 13:16:02;;;;;;;;;;;21.90;65.90;;;;;;7322505;19;9229;-71
2023/06/27 13:18:32;;;;;;;;;;;21.90;67.20;;;;;;7327197;19;9252;-72
2023/06/27 13:21:01;;;;;;;;;;;21.90;67.60;;;;;;7324181;19;9236;-71
2023/06/27 13:23:30;;;;;;;;;;;21.80;64.90;;;;;;7324568;19;9206;-72
2023/06/27 13:25:59;;;;;;;;;;;21.90;65.60;;;;;;7324625;19;9214;-72
2023/06/27 13:28:31;;;;;;;;;;;22.00;66.80;;;;;;7324258;19;9186;-73
2023/06/27 13:31:00;;;;;;;;;;;21.70;69.50;;;;;;7326813;19;9453;-71
2023/06/27 13:33:29;;;;;;;;;;;21.70;70.60;;;;;;7323912;19;8997;-72
2023/06/27 13:35:58;;;;;;;;;;;21.70;70.70;;;;;;7323681;19;9206;-72
2023/06/27 13:38:27;;;;;;;;;;;21.80;70.20;;;;;;7323829;19;9166;-71
2023/06/27 13:40:56;;;;;;;;;;;21.70;70.50;;;;;;7326482;19;9524;-71
2023/06/27 13:43:26;;;;;;;;;;;21.90;69.40;;;;;;7324346;19;9143;-70
2023/06/27 13:45:57;;;;;;;;;;;21.90;68.80;;;;;;7318295;19;9576;-72
2023/06/27 13:48:27;;;;;;;;;;;22.00;69.90;;;;;;7307734;19;9226;-75
2023/06/27 13:50:56;;;;;;;;;;;22.00;71.40;;;;;;7287916;19;9505;-71
2023/06/27 13:53:25;;;;;;;;;;;21.80;72.00;;;;;;7301360;19;9281;-72
2023/06/27 13:55:55;;;;;;;;;;;21.80;72.30;;;;;;7295889;19;9326;-72
2023/06/27 13:58:25;;;;;;;;;;;21.80;72.30;;;;;;7299724;19;9251;-72
2023/06/27 14:00:59;;;;;;;;;;;21.70;72.10;;;;;;7301835;19;9409;-72
2023/06/27 14:03:29;;;;;;;;;;;21.80;73.10;;;;;;7299059;19;9422;-71
2023/06/27 14:05:59;;;;;;;;;;;21.80;73.20;;;;;;7287293;19;10281;-72
2023/06/27 14:08:28;;;;;;;;;;;21.80;71.90;;;;;;7298803;19;9432;-72
2023/06/27 14:10:57;;;;;;;;;;;21.90;69.50;;;;;;7306236;19;9562;-72
2023/06/27 14:13:26;;;;;;;;;;;21.90;70.40;;;;;;7308909;19;9262;-72
2023/06/27 14:15:58;;;;;;;;;;;22.00;70.50;;;;;;7305852;19;9492;-72
2023/06/27 14:18:27;;;;;;;;;;;21.80;71.60;;;;;;7309407;19;10132;-72
2023/06/27 14:20:57;;;;;;;;;;;21.70;72.40;;;;;;7307696;19;11042;-72
2023/06/27 14:23:27;;;;;;;;;;;21.60;72.20;;;;;;7306407;19;9683;-72
2023/06/27 14:25:56;;;;;;;;;;;21.40;72.50;;;;;;7308045;19;9272;-73
2023/06/27 14:28:25;;;;;;;;;;;21.30;73.70;;;;;;7307293;19;10170;-72
2023/06/27 14:30:57;;;;;;;;;;;21.20;73.70;;;;;;7309722;19;9260;-72
2023/06/27 14:33:26;;;;;;;;;;;21.10;73.20;;;;;;7306069;19;9279;-72
2023/06/27 14:35:56;;;;;;;;;;;21.10;74.80;;;;;;7308569;19;9261;-72
2023/06/27 14:38:26;;;;;;;;;;;21.00;74.60;;;;;;7307475;19;9271;-72
2023/06/27 14:40:55;;;;;;;;;;;20.90;74.40;;;;;;7305673;19;9311;-72
2023/06/27 14:43:24;;;;;;;;;;;20.70;75.20;;;;;;7307909;19;9814;-73
2023/06/27 14:45:56;;;;;;;;;;;20.50;76.20;;;;;;7310699;19;9355;-71
2023/06/27 14:48:25;;;;;;;;;;;20.40;76.50;;;;;;7307240;19;9229;-72